createdAt,value
2022-11-21T00:01:58.217Z,15.44
2022-11-21T00:04:40.448Z,15.42
2022-11-21T00:07:29.184Z,15.25
2022-11-21T00:10:19.074Z,15.20
2022-11-21T00:13:08.166Z,15.16
2022-11-21T00:15:58.200Z,15.13
2022-11-21T00:18:50.598Z,15.12
2022-11-21T00:21:32.052Z,14.96
2022-11-21T00:24:14.590Z,15.01
2022-11-21T00:27:03.185Z,15.01
2022-11-21T00:29:51.475Z,14.98
2022-11-21T00:32:33.126Z,14.87
2022-11-21T00:35:15.412Z,14.82
2022-11-21T00:38:04.125Z,14.59
2022-11-21T00:40:46.837Z,14.71
2022-11-21T00:43:36.172Z,14.70
2022-11-21T00:46:18.371Z,14.76
2022-11-21T00:49:07.210Z,14.92
2022-11-21T00:51:56.607Z,14.84
2022-11-21T00:54:39.193Z,14.74
2022-11-21T00:57:28.047Z,14.78
2022-11-21T01:00:10.498Z,14.79
2022-11-21T01:02:59.123Z,14.84
2022-11-21T01:05:41.395Z,14.79
2022-11-21T01:08:30.059Z,14.62
2022-11-21T01:11:14.590Z,14.62
2022-11-21T01:14:03.121Z,14.59
2022-11-21T01:16:45.741Z,14.67
2022-11-21T01:19:35.174Z,14.53
2022-11-21T01:22:17.464Z,14.42
2022-11-21T01:25:06.016Z,14.48
2022-11-21T01:27:55.075Z,14.44
2022-11-21T01:30:43.433Z,14.44
2022-11-21T01:33:26.182Z,14.49
2022-11-21T01:36:29.793Z,14.45
2022-11-21T01:39:20.167Z,14.52
2022-11-21T01:42:02.394Z,14.53
2022-11-21T01:45:40.113Z,14.61
2022-11-21T01:48:35.151Z,14.67
2022-11-21T01:52:01.134Z,14.58
2022-11-21T01:54:48.740Z,14.53
2022-11-21T01:57:56.040Z,14.56
2022-11-21T02:00:49.208Z,14.60
2022-11-21T02:03:42.049Z,14.57
2022-11-21T02:06:33.106Z,14.83
2022-11-21T02:09:15.410Z,14.73
2022-11-21T02:12:10.109Z,14.83
2022-11-21T02:14:52.415Z,15.21
2022-11-21T02:17:42.187Z,15.33
2022-11-21T02:20:27.436Z,15.50
2022-11-21T02:23:23.108Z,15.68
2022-11-21T02:26:05.412Z,15.73
2022-11-21T02:28:54.104Z,15.77
2022-11-21T02:31:36.411Z,15.83
2022-11-21T02:34:25.258Z,15.86
2022-11-21T02:37:16.070Z,15.92
2022-11-21T02:40:16.038Z,16.01
2022-11-21T02:43:08.424Z,16.25
2022-11-21T02:45:53.137Z,16.50
2022-11-21T02:48:43.102Z,16.50
2022-11-21T02:51:32.173Z,16.61
2022-11-21T02:54:14.328Z,16.72
2022-11-21T02:57:04.132Z,16.85
2022-11-21T02:59:46.261Z,17.02
2022-11-21T03:02:35.050Z,17.17
2022-11-21T03:05:26.554Z,17.36
2022-11-21T03:08:09.035Z,17.44
2022-11-21T03:11:04.208Z,17.61
2022-11-21T03:13:46.280Z,17.86
2022-11-21T03:16:35.209Z,18.02
2022-11-21T03:19:17.337Z,18.26
2022-11-21T03:22:06.074Z,18.57
2022-11-21T03:24:55.017Z,18.84
2022-11-21T03:27:44.036Z,18.92
2022-11-21T03:30:41.023Z,19.42
2022-11-21T03:33:29.998Z,19.87
2022-11-21T03:36:12.463Z,20.19
2022-11-21T03:39:03.459Z,20.60
2022-11-21T03:41:45.378Z,21.01
2022-11-21T03:44:34.139Z,21.62
2022-11-21T03:47:16.431Z,21.90
2022-11-21T03:50:05.037Z,22.72
2022-11-21T03:52:54.407Z,23.20
2022-11-21T03:55:42.471Z,23.60
2022-11-21T03:58:24.127Z,23.89
2022-11-21T04:01:16.629Z,24.05
2022-11-21T04:03:59.141Z,24.27
2022-11-21T04:06:47.411Z,24.31
2022-11-21T04:09:29.156Z,24.55
2022-11-21T04:12:11.479Z,24.77
2022-11-21T04:15:00.173Z,24.80
2022-11-21T04:17:49.384Z,24.98
2022-11-21T04:20:31.093Z,24.88
2022-11-21T04:23:20.409Z,25.08
2022-11-21T04:26:03.100Z,25.15
2022-11-21T04:28:59.017Z,25.30
2022-11-21T04:31:48.141Z,24.58
2022-11-21T04:34:37.141Z,24.52
2022-11-21T04:37:19.537Z,24.79
2022-11-21T04:40:08.080Z,24.33
2022-11-21T04:42:57.437Z,24.66
2022-11-21T04:45:40.134Z,24.66
2022-11-21T04:48:29.152Z,24.97
2022-11-21T04:51:11.632Z,24.84
2022-11-21T04:54:00.138Z,24.94
2022-11-21T04:56:42.392Z,25.06
2022-11-21T04:59:31.077Z,25.03
2022-11-21T05:02:13.430Z,24.93
2022-11-21T05:05:02.086Z,24.84
2022-11-21T05:07:44.507Z,24.99
2022-11-21T05:10:33.112Z,25.00
2022-11-21T05:13:23.466Z,25.05
2022-11-21T05:16:13.070Z,24.98
2022-11-21T05:18:55.368Z,25.17
2022-11-21T05:21:44.116Z,25.16
2022-11-21T05:24:49.051Z,25.29
2022-11-21T05:27:38.427Z,25.76
2022-11-21T05:30:27.156Z,26.10
2022-11-21T05:33:09.376Z,25.98
2022-11-21T05:35:58.164Z,26.01
2022-11-21T05:38:40.559Z,25.76
2022-11-21T05:41:29.226Z,25.82
2022-11-21T05:44:11.556Z,25.91
2022-11-21T05:47:00.472Z,25.77
2022-11-21T05:49:42.422Z,26.55
2022-11-21T05:52:31.124Z,26.51
2022-11-21T05:55:13.452Z,26.55
2022-11-21T05:58:02.188Z,26.51
2022-11-21T06:00:44.504Z,26.32
2022-11-21T06:03:35.170Z,26.46
2022-11-21T06:06:25.011Z,26.54
2022-11-21T06:09:14.073Z,26.69
2022-11-21T06:11:56.558Z,27.08
2022-11-21T06:14:45.196Z,26.83
2022-11-21T06:17:27.414Z,27.00
2022-11-21T06:20:17.208Z,27.25
2022-11-21T06:22:59.532Z,27.17
2022-11-21T06:25:48.143Z,27.04
2022-11-21T06:28:47.949Z,27.04
2022-11-21T06:31:38.112Z,27.14
2022-11-21T06:34:20.436Z,27.12
2022-11-21T06:37:09.434Z,27.31
2022-11-21T06:39:51.443Z,27.39
2022-11-21T06:42:41.129Z,27.27
2022-11-21T06:45:23.510Z,26.75
2022-11-21T06:48:12.474Z,27.06
2022-11-21T06:50:54.436Z,27.33
2022-11-21T06:53:43.160Z,27.30
2022-11-21T06:56:25.364Z,27.21
2022-11-21T06:59:14.214Z,27.15
2022-11-21T07:01:56.355Z,27.30
2022-11-21T07:04:45.143Z,27.41
2022-11-21T07:07:27.448Z,27.27
2022-11-21T07:10:17.149Z,26.94
2022-11-21T07:13:17.893Z,26.93
2022-11-21T07:16:16.141Z,27.35
2022-11-21T07:18:58.372Z,27.09
2022-11-21T07:21:47.082Z,27.34
2022-11-21T07:24:29.438Z,26.96
2022-11-21T07:27:18.038Z,27.05
2022-11-21T07:30:13.152Z,27.06
2022-11-21T07:33:10.430Z,27.38
2022-11-21T07:35:53.181Z,27.13
2022-11-21T07:38:42.574Z,27.25
2022-11-21T07:41:25.190Z,27.50
2022-11-21T07:44:07.406Z,27.43
2022-11-21T07:46:56.127Z,27.36
2022-11-21T07:49:44.435Z,27.01
2022-11-21T07:52:27.122Z,27.07
2022-11-21T07:55:16.477Z,27.01
2022-11-21T07:58:07.117Z,27.07
2022-11-21T08:00:55.437Z,26.88
2022-11-21T08:03:37.165Z,26.93
2022-11-21T08:06:25.366Z,27.02
2022-11-21T08:09:07.063Z,27.18
2022-11-21T08:12:03.082Z,27.06
2022-11-21T08:14:51.401Z,27.24
2022-11-21T08:17:37.147Z,27.07
2022-11-21T08:20:25.350Z,26.83
2022-11-21T08:23:07.229Z,26.65
2022-11-21T08:25:49.318Z,26.54
2022-11-21T08:28:38.165Z,26.93
2022-11-21T08:31:26.462Z,26.96
2022-11-21T08:34:11.651Z,27.07
2022-11-21T08:37:03.088Z,27.07
2022-11-21T08:39:45.347Z,26.99
2022-11-21T10:22:41.427Z,25.88
2022-11-21T10:25:32.041Z,25.88
2022-11-21T10:28:37.377Z,25.77
2022-11-21T10:31:21.274Z,25.74
2022-11-21T10:34:13.392Z,25.59
2022-11-21T10:37:39.845Z,25.78
2022-11-21T10:40:36.296Z,25.58
2022-11-21T10:43:42.923Z,25.47
2022-11-21T10:46:31.263Z,25.19
2022-11-21T10:49:22.606Z,25.34
2022-11-21T10:52:20.308Z,25.39
2022-11-21T10:55:12.381Z,25.32
2022-11-21T10:58:07.300Z,25.30
2022-11-21T11:01:05.705Z,25.27
2022-11-21T11:04:06.987Z,25.18
2022-11-21T11:06:56.373Z,25.15
2022-11-21T11:09:48.338Z,25.07
2022-11-21T11:12:51.866Z,25.19
2022-11-21T11:15:42.391Z,25.07
2022-11-21T11:18:31.656Z,24.90
2022-11-21T11:21:49.550Z,24.93
2022-11-21T11:24:34.634Z,24.64
2022-11-21T11:27:36.238Z,24.62
2022-11-21T11:30:25.637Z,24.45
2022-11-21T11:33:42.431Z,24.24
2022-11-21T11:36:45.533Z,24.05
2022-11-21T11:40:05.461Z,23.95
2022-11-21T11:43:21.147Z,23.78
2022-11-21T11:46:38.404Z,23.61
2022-11-21T11:50:12.661Z,23.34
2022-11-21T11:53:22.446Z,23.20
2022-11-21T11:56:11.686Z,22.97
2022-11-21T11:59:16.257Z,22.88
2022-11-21T12:02:01.855Z,22.80
2022-11-21T12:05:13.251Z,22.59
2022-11-21T12:12:16.243Z,22.35
2022-11-21T12:15:48.309Z,22.34
2022-11-21T12:18:41.397Z,22.22
2022-11-21T12:21:30.712Z,22.10
2022-11-21T12:24:13.272Z,21.87
2022-11-21T12:27:48.196Z,21.83
2022-11-21T12:30:49.234Z,21.69
2022-11-21T12:33:44.425Z,21.63
2022-11-21T12:36:37.607Z,21.54
2022-11-21T12:39:48.149Z,21.39
2022-11-21T12:42:52.240Z,21.34
2022-11-21T12:45:47.322Z,21.27
2022-11-21T12:49:27.654Z,21.18
2022-11-21T12:52:53.690Z,21.16
2022-11-21T12:55:44.302Z,21.03
2022-11-21T12:58:43.613Z,20.97
2022-11-21T13:01:39.344Z,20.86
2022-11-21T13:04:50.568Z,20.79
2022-11-21T13:07:42.339Z,20.68
2022-11-21T13:10:31.327Z,20.68
2022-11-21T13:13:49.363Z,20.68
2022-11-21T13:16:45.313Z,20.48
2022-11-21T13:19:53.354Z,20.38
2022-11-21T13:22:44.655Z,20.39
2022-11-21T13:25:47.455Z,20.49
2022-11-21T13:28:42.595Z,20.32
2022-11-21T13:31:39.238Z,20.28
2022-11-21T13:34:50.372Z,20.36
2022-11-21T13:38:14.886Z,20.25
2022-11-21T13:41:15.391Z,20.19
2022-11-21T13:44:39.433Z,20.14
2022-11-21T13:47:34.393Z,20.20
2022-11-21T13:50:28.556Z,20.11
2022-11-21T13:53:32.418Z,20.02
2022-11-21T13:56:47.281Z,19.99
2022-11-21T13:59:48.295Z,19.96
2022-11-21T14:02:48.693Z,19.98
2022-11-21T14:05:58.357Z,19.90
2022-11-21T14:08:48.260Z,19.80
2022-11-21T14:11:52.300Z,19.69
2022-11-21T14:14:49.708Z,19.71
2022-11-21T14:17:49.321Z,19.72
2022-11-21T14:21:09.278Z,19.79
2022-11-21T14:23:58.689Z,19.67
2022-11-21T14:26:54.249Z,19.65
2022-11-21T14:29:49.264Z,19.66
2022-11-21T14:32:39.598Z,19.58
2022-11-21T14:35:32.328Z,19.62
2022-11-21T14:38:14.743Z,19.58
2022-11-21T14:41:35.262Z,19.62
2022-11-21T14:44:18.713Z,19.64
2022-11-21T14:47:26.772Z,19.52
2022-11-21T14:50:16.252Z,19.35
2022-11-21T14:53:07.600Z,19.38
2022-11-21T14:55:50.215Z,19.30
2022-11-21T14:58:38.647Z,19.35
2022-11-21T15:01:47.404Z,19.41
2022-11-21T15:04:39.757Z,19.39
2022-11-21T15:07:32.279Z,19.35
2022-11-21T15:10:30.224Z,19.34
2022-11-21T15:13:39.738Z,19.23
2022-11-21T15:16:31.073Z,19.17
2022-11-21T15:19:26.719Z,19.09
2022-11-21T15:22:30.073Z,19.09
2022-11-21T15:25:37.199Z,19.02
2022-11-21T15:28:19.771Z,18.92
2022-11-21T15:31:33.413Z,18.98
2022-11-21T15:37:40.298Z,18.83
2022-11-21T15:40:28.591Z,18.77
2022-11-21T15:43:11.252Z,18.77
2022-11-21T15:46:10.322Z,18.73
2022-11-21T15:49:06.236Z,18.70
2022-11-21T15:52:09.845Z,18.72
2022-11-21T15:54:59.331Z,18.65
2022-11-21T15:57:13.219Z,19.00
2022-11-21T15:57:41.468Z,18.63
2022-11-21T16:00:31.332Z,18.55
2022-11-21T16:03:20.358Z,18.55
2022-11-21T16:06:02.774Z,18.55
2022-11-21T16:08:51.304Z,18.54
2022-11-21T16:11:48.225Z,18.48
2022-11-21T16:14:36.568Z,18.39
2022-11-21T16:17:19.320Z,18.32
2022-11-21T16:20:08.240Z,18.27
2022-11-21T16:23:03.266Z,18.25
2022-11-21T16:26:03.623Z,18.24
2022-11-21T16:28:47.058Z,18.11
2022-11-21T16:31:38.380Z,18.13
2022-11-21T16:34:21.164Z,18.02
2022-11-21T16:37:10.344Z,18.07
2022-11-21T16:39:55.406Z,18.06
2022-11-21T16:42:44.378Z,18.08
2022-11-21T16:45:26.642Z,18.18
2022-11-21T16:48:15.329Z,18.01
2022-11-21T16:50:59.003Z,17.95
2022-11-21T16:53:51.342Z,17.96
2022-11-21T16:56:34.687Z,17.95
2022-11-21T16:59:23.250Z,17.98
2022-11-21T17:02:12.513Z,17.92
2022-11-21T17:05:01.801Z,17.94
2022-11-21T17:07:53.325Z,17.98
2022-11-21T17:10:42.249Z,17.90
2022-11-21T17:13:31.264Z,17.87
2022-11-21T17:16:21.553Z,17.77
2022-11-21T17:19:08.634Z,17.80
2022-11-21T17:21:58.329Z,17.80
2022-11-21T17:24:41.479Z,17.75
2022-11-21T17:27:32.188Z,17.85
2022-11-21T17:30:17.142Z,17.87
2022-11-21T17:33:06.186Z,17.86
2022-11-21T17:35:55.418Z,17.83
2022-11-21T17:38:37.569Z,17.80
2022-11-21T17:41:27.452Z,17.84
2022-11-21T17:44:20.320Z,17.71
2022-11-21T17:47:03.851Z,17.64
2022-11-21T17:49:52.249Z,17.51
2022-11-21T17:52:42.233Z,17.48
2022-11-21T17:55:30.562Z,17.40
2022-11-21T17:58:13.239Z,17.40
2022-11-21T18:01:03.638Z,17.46
2022-11-21T18:03:47.118Z,17.40
2022-11-21T18:06:41.626Z,17.24
2022-11-21T18:09:24.436Z,17.27
2022-11-21T18:12:06.773Z,17.36
2022-11-21T18:14:55.187Z,17.35
2022-11-21T18:17:45.220Z,17.27
2022-11-21T18:20:40.385Z,17.27
2022-11-21T18:23:22.526Z,17.30
2022-11-21T18:26:16.355Z,17.32
2022-11-21T18:29:34.534Z,17.17
2022-11-21T18:32:09.433Z,17.18
2022-11-21T18:34:58.737Z,17.13
2022-11-21T18:37:42.387Z,17.10
2022-11-21T18:40:30.662Z,17.11
2022-11-21T18:43:12.186Z,17.01
2022-11-21T18:45:54.456Z,16.94
2022-11-21T18:49:01.567Z,16.96
2022-11-21T18:51:52.122Z,16.94
2022-11-21T18:54:34.296Z,17.01
2022-11-21T18:57:16.673Z,16.99
2022-11-21T19:00:05.443Z,16.87
2022-11-21T19:02:48.065Z,16.77
2022-11-21T19:05:37.313Z,16.75
2022-11-21T19:08:26.582Z,16.84
2022-11-21T19:11:13.316Z,16.76
2022-11-21T19:14:03.276Z,16.78
2022-11-21T19:16:45.710Z,16.79
2022-11-21T19:19:36.343Z,16.70
2022-11-21T19:22:24.564Z,16.68
2022-11-21T19:25:07.316Z,16.55
2022-11-21T19:27:55.684Z,16.66
2022-11-21T19:30:38.254Z,16.71
2022-11-21T19:33:27.319Z,16.74
2022-11-21T19:36:12.517Z,16.68
2022-11-21T19:39:01.313Z,16.50
2022-11-21T19:41:43.625Z,16.51
2022-11-21T19:44:32.245Z,16.47
2022-11-21T19:47:21.267Z,16.53
2022-11-21T19:50:10.359Z,16.54
2022-11-21T19:52:52.548Z,16.53
2022-11-21T19:55:41.309Z,16.43
2022-11-21T19:58:24.510Z,16.49
2022-11-21T20:01:22.416Z,16.50
2022-11-21T20:04:06.535Z,16.55
2022-11-21T20:06:55.214Z,16.58
2022-11-21T20:09:37.921Z,16.46
2022-11-21T20:12:27.221Z,16.55
2022-11-21T20:15:09.538Z,16.57
2022-11-21T20:17:59.401Z,16.50
2022-11-21T20:20:54.155Z,16.42
2022-11-21T20:23:43.291Z,16.39
2022-11-21T20:26:27.536Z,16.35
2022-11-21T20:29:18.295Z,16.39
2022-11-21T20:32:02.264Z,16.28
2022-11-21T20:34:51.293Z,16.37
2022-11-21T20:37:34.699Z,16.34
2022-11-21T20:40:23.363Z,16.33
2022-11-21T20:43:05.559Z,16.22
2022-11-21T20:46:14.142Z,16.35
2022-11-21T20:48:57.643Z,16.35
2022-11-21T20:54:49.137Z,16.31
2022-11-21T20:57:38.145Z,16.29
2022-11-21T21:00:20.794Z,16.21
2022-11-21T21:03:09.235Z,16.36
2022-11-21T21:06:01.478Z,16.35
2022-11-21T21:08:55.547Z,16.32
2022-11-21T21:11:53.544Z,16.36
2022-11-21T21:14:35.570Z,16.46
2022-11-21T21:17:24.298Z,16.51
2022-11-21T21:20:13.506Z,16.48
2022-11-21T21:23:03.154Z,16.40
2022-11-21T21:25:46.250Z,16.41
2022-11-21T21:28:35.265Z,16.37
2022-11-21T21:31:22.823Z,16.39
2022-11-21T21:34:11.542Z,16.32
2022-11-21T21:36:53.537Z,16.24
2022-11-21T21:39:42.326Z,16.23
2022-11-21T21:42:24.470Z,16.10
2022-11-21T21:45:13.117Z,16.17
2022-11-21T21:47:55.517Z,16.16
2022-11-21T21:50:44.208Z,16.27
2022-11-21T21:53:26.537Z,16.33
2022-11-21T21:56:15.328Z,16.39
2022-11-21T21:58:58.890Z,16.24
2022-11-21T22:01:50.323Z,16.31
2022-11-21T22:04:34.872Z,16.26
2022-11-21T22:07:23.225Z,16.30
2022-11-21T22:10:05.578Z,16.26
2022-11-21T22:12:56.280Z,16.30
2022-11-21T22:15:38.495Z,16.36
2022-11-21T22:18:27.361Z,16.36
2022-11-21T22:21:29.083Z,16.31
2022-11-21T22:24:25.822Z,16.35
2022-11-21T22:27:08.537Z,16.28
2022-11-21T22:29:57.179Z,16.32
2022-11-21T22:32:39.613Z,16.24
2022-11-21T22:35:28.229Z,16.17
2022-11-21T22:38:10.552Z,16.15
2022-11-21T22:40:59.218Z,16.14
2022-11-21T22:43:48.147Z,16.17
2022-11-21T22:46:38.542Z,16.14
2022-11-21T22:49:20.311Z,16.10
2022-11-21T22:52:08.532Z,15.97
2022-11-21T22:54:50.130Z,15.84
2022-11-21T22:57:42.505Z,15.59
2022-11-21T23:00:25.318Z,15.71
2022-11-21T23:03:13.520Z,15.79
2022-11-21T23:05:55.313Z,15.77
2022-11-21T23:08:44.537Z,15.93
2022-11-21T23:11:40.417Z,15.94
2022-11-21T23:14:22.546Z,15.87
2022-11-21T23:17:11.348Z,15.91
2022-11-21T23:19:59.523Z,15.81
2022-11-21T23:22:48.151Z,15.77
2022-11-21T23:25:30.525Z,15.84
2022-11-21T23:28:19.247Z,15.97
2022-11-21T23:31:01.522Z,16.05
2022-11-21T23:33:50.199Z,16.01
2022-11-21T23:36:40.135Z,15.87
2022-11-21T23:39:28.867Z,15.72
2022-11-21T23:42:12.711Z,15.71
2022-11-21T23:44:54.462Z,15.67
2022-11-21T23:47:43.252Z,15.77
2022-11-21T23:50:32.129Z,15.81
2022-11-21T23:53:21.246Z,15.84
2022-11-21T23:56:03.152Z,15.88
2022-11-21T23:58:52.315Z,15.83
